createdAt,value
2023-02-17T00:01:18.526Z,13.50
2023-02-17T00:03:48.983Z,13.50
2023-02-17T00:06:18.913Z,13.50
2023-02-17T00:08:49.365Z,13.50
2023-02-17T00:11:18.713Z,13.50
2023-02-17T00:13:47.445Z,13.50
2023-02-17T00:16:19.532Z,13.50
2023-02-17T00:18:53.372Z,13.50
2023-02-17T00:21:23.161Z,13.50
2023-02-17T00:23:51.844Z,13.50
2023-02-17T00:26:20.739Z,13.50
2023-02-17T00:28:49.620Z,13.50
2023-02-17T00:31:20.781Z,13.50
2023-02-17T00:33:50.582Z,13.50
2023-02-17T00:36:20.658Z,13.50
2023-02-17T00:38:49.903Z,13.50
2023-02-17T00:41:18.076Z,13.50
2023-02-17T00:43:45.950Z,13.50
2023-02-17T00:46:14.751Z,13.50
2023-02-17T00:48:43.258Z,13.50
2023-02-17T00:51:12.728Z,13.50
2023-02-17T00:53:41.329Z,13.50
2023-02-17T00:56:10.636Z,13.50
2023-02-17T00:58:38.978Z,13.50
2023-02-17T01:01:06.912Z,13.50
2023-02-17T01:03:34.834Z,13.50
2023-02-17T01:06:07.409Z,13.50
2023-02-17T01:08:37.248Z,13.50
2023-02-17T01:11:08.303Z,13.50
2023-02-17T01:13:36.125Z,13.50
2023-02-17T01:16:04.276Z,13.50
2023-02-17T01:18:32.420Z,13.50
2023-02-17T01:21:00.303Z,13.50
2023-02-17T01:23:28.168Z,13.40
2023-02-17T01:25:57.412Z,13.40
2023-02-17T01:28:25.294Z,13.60
2023-02-17T01:30:53.481Z,13.40
2023-02-17T01:33:21.304Z,13.40
2023-02-17T01:35:49.082Z,13.40
2023-02-17T01:38:16.914Z,13.30
2023-02-17T01:40:49.128Z,13.30
2023-02-17T01:43:19.157Z,13.30
2023-02-17T01:45:53.590Z,13.30
2023-02-17T01:48:25.197Z,13.30
2023-02-17T01:50:56.146Z,13.20
2023-02-17T01:53:28.941Z,13.20
2023-02-17T01:55:57.474Z,13.20
2023-02-17T01:58:28.844Z,13.20
2023-02-17T02:01:00.207Z,13.20
2023-02-17T02:03:31.344Z,13.40
2023-02-17T02:06:00.122Z,13.40
2023-02-17T02:08:30.904Z,13.10
2023-02-17T02:10:59.090Z,13.10
2023-02-17T02:13:28.336Z,13.10
2023-02-17T02:16:02.472Z,13.10
2023-02-17T02:18:42.608Z,13.10
2023-02-17T02:22:05.848Z,13.10
2023-02-17T02:24:49.726Z,13.00
2023-02-17T02:27:36.761Z,13.00
2023-02-17T02:30:29.263Z,13.00
2023-02-17T02:33:05.887Z,13.00
2023-02-17T02:35:43.394Z,13.00
2023-02-17T02:38:17.517Z,13.00
2023-02-17T02:40:49.824Z,13.00
2023-02-17T02:43:18.377Z,12.90
2023-02-17T02:45:46.695Z,12.90
2023-02-17T02:48:18.165Z,12.90
2023-02-17T02:51:06.639Z,12.90
2023-02-17T02:54:05.021Z,12.80
2023-02-17T02:56:48.485Z,12.80
2023-02-17T02:59:29.605Z,12.80
2023-02-17T03:02:07.349Z,12.80
2023-02-17T03:04:40.128Z,12.80
2023-02-17T03:07:21.073Z,12.80
2023-02-17T03:09:50.223Z,12.80
2023-02-17T03:12:18.262Z,12.80
2023-02-17T03:14:48.205Z,12.80
2023-02-17T03:17:18.810Z,12.80
2023-02-17T03:19:48.730Z,12.80
2023-02-17T03:22:20.804Z,12.80
2023-02-17T03:24:48.840Z,12.80
2023-02-17T03:27:16.721Z,13.30
2023-02-17T03:29:44.597Z,12.90
2023-02-17T03:32:12.877Z,12.90
2023-02-17T03:34:40.940Z,12.90
2023-02-17T03:37:12.497Z,12.90
2023-02-17T03:39:40.581Z,12.90
2023-02-17T03:42:08.396Z,12.90
2023-02-17T03:44:36.251Z,12.90
2023-02-17T03:47:04.514Z,12.90
2023-02-17T03:49:32.501Z,13.00
2023-02-17T03:52:00.505Z,11.80
2023-02-17T03:54:29.785Z,13.00
2023-02-17T03:56:59.076Z,13.00
2023-02-17T03:59:27.171Z,13.00
2023-02-17T04:01:55.149Z,13.00
2023-02-17T04:04:23.193Z,13.00
2023-02-17T04:06:51.017Z,13.10
2023-02-17T04:09:18.820Z,13.10
2023-02-17T04:11:48.103Z,13.10
2023-02-17T04:14:16.278Z,13.10
2023-02-17T04:16:44.108Z,13.10
2023-02-17T04:19:12.157Z,13.10
2023-02-17T04:21:40.036Z,13.10
2023-02-17T04:24:07.904Z,13.10
2023-02-17T04:26:35.927Z,13.10
2023-02-17T04:29:06.819Z,13.10
2023-02-17T04:31:34.669Z,13.10
2023-02-17T04:34:02.503Z,13.10
2023-02-17T04:36:30.394Z,13.10
2023-02-17T04:38:58.236Z,13.20
2023-02-17T04:41:26.077Z,13.20
2023-02-17T04:43:53.867Z,13.20
2023-02-17T04:46:23.217Z,13.20
2023-02-17T04:48:51.119Z,13.20
2023-02-17T04:51:19.014Z,13.20
2023-02-17T04:53:49.977Z,13.20
2023-02-17T04:56:17.854Z,13.20
2023-02-17T04:58:45.743Z,13.20
2023-02-17T05:01:13.809Z,13.20
2023-02-17T05:03:43.102Z,13.20
2023-02-17T05:06:10.948Z,13.20
2023-02-17T05:08:39.039Z,13.20
2023-02-17T05:11:08.586Z,13.20
2023-02-17T05:13:36.400Z,13.20
2023-02-17T05:16:07.200Z,13.20
2023-02-17T05:18:35.275Z,13.20
2023-02-17T05:21:04.854Z,13.20
2023-02-17T05:23:32.733Z,13.20
2023-02-17T05:26:00.687Z,13.20
2023-02-17T05:28:28.686Z,13.20
2023-02-17T05:30:56.518Z,13.20
2023-02-17T05:33:24.343Z,13.20
2023-02-17T05:35:52.204Z,13.20
2023-02-17T05:38:21.970Z,13.20
2023-02-17T05:40:51.244Z,13.20
2023-02-17T05:43:19.040Z,13.20
2023-02-17T05:45:47.158Z,13.20
2023-02-17T05:48:15.901Z,13.20
2023-02-17T05:50:44.012Z,13.20
2023-02-17T05:53:12.060Z,13.20
2023-02-17T05:55:41.221Z,13.20
2023-02-17T05:58:09.060Z,13.20
2023-02-17T06:00:36.978Z,13.20
2023-02-17T06:03:05.086Z,13.20
2023-02-17T06:05:33.026Z,13.20
2023-02-17T06:08:00.834Z,13.20
2023-02-17T06:10:28.730Z,13.20
2023-02-17T06:12:57.930Z,13.20
2023-02-17T06:15:25.902Z,13.20
2023-02-17T06:17:53.738Z,13.20
2023-02-17T06:20:21.942Z,13.20
2023-02-17T06:22:49.783Z,13.20
2023-02-17T06:25:17.878Z,13.10
2023-02-17T06:27:45.762Z,13.10
2023-02-17T06:30:17.581Z,13.10
2023-02-17T06:32:45.654Z,13.10
2023-02-17T06:35:13.834Z,11.40
2023-02-17T06:37:41.613Z,13.20
2023-02-17T06:40:10.997Z,13.20
2023-02-17T06:42:38.845Z,13.20
2023-02-17T06:45:10.394Z,13.20
2023-02-17T06:47:39.748Z,13.20
2023-02-17T06:50:09.337Z,13.20
2023-02-17T06:52:37.201Z,13.20
2023-02-17T06:55:06.016Z,13.20
2023-02-17T06:57:33.874Z,11.40
2023-02-17T07:00:01.692Z,13.20
2023-02-17T07:02:29.655Z,13.20
2023-02-17T07:04:58.929Z,13.20
2023-02-17T07:07:26.808Z,13.20
2023-02-17T07:09:54.645Z,13.20
2023-02-17T07:12:22.485Z,13.20
2023-02-17T07:14:50.614Z,13.20
2023-02-17T07:17:18.567Z,13.20
2023-02-17T07:19:49.787Z,13.20
2023-02-17T07:22:19.068Z,14.10
2023-02-17T07:24:49.999Z,13.20
2023-02-17T07:27:17.909Z,13.30
2023-02-17T07:29:45.817Z,13.30
2023-02-17T07:32:13.822Z,13.30
2023-02-17T07:34:41.604Z,13.30
2023-02-17T07:37:09.875Z,13.30
2023-02-17T07:39:39.102Z,13.30
2023-02-17T07:42:09.895Z,13.30
2023-02-17T07:44:37.805Z,13.40
2023-02-17T07:47:08.286Z,13.40
2023-02-17T07:49:36.250Z,13.40
2023-02-17T07:52:05.453Z,13.40
2023-02-17T07:54:33.469Z,13.40
2023-02-17T07:57:02.764Z,13.40
2023-02-17T07:59:30.810Z,13.50
2023-02-17T08:01:58.687Z,13.50
2023-02-17T08:04:26.757Z,13.50
2023-02-17T08:06:54.774Z,13.50
2023-02-17T08:09:40.193Z,13.70
2023-02-17T08:12:33.285Z,13.60
2023-02-17T08:15:01.834Z,13.60
2023-02-17T08:17:30.388Z,13.60
2023-02-17T08:20:00.513Z,13.60
2023-02-17T08:22:29.988Z,13.70
2023-02-17T08:24:57.924Z,13.70
2023-02-17T08:27:27.316Z,13.70
2023-02-17T08:29:55.906Z,13.70
2023-02-17T08:32:24.407Z,13.80
2023-02-17T08:34:55.965Z,13.80
2023-02-17T08:37:23.951Z,13.80
2023-02-17T08:39:52.066Z,13.80
2023-02-17T08:42:20.067Z,13.90
2023-02-17T08:44:49.611Z,13.90
2023-02-17T08:47:17.600Z,13.90
2023-02-17T08:49:45.742Z,13.90
2023-02-17T08:52:13.764Z,13.90
2023-02-17T08:54:41.651Z,14.20
2023-02-17T08:57:09.462Z,14.00
2023-02-17T08:59:37.353Z,14.00
2023-02-17T09:02:06.942Z,14.00
2023-02-17T09:04:34.926Z,14.00
2023-02-17T09:07:03.919Z,14.00
2023-02-17T09:09:32.527Z,14.10
2023-02-17T09:12:00.476Z,14.10
2023-02-17T09:14:29.023Z,14.10
2023-02-17T09:16:57.742Z,14.10
2023-02-17T09:19:27.421Z,14.10
2023-02-17T09:21:55.559Z,14.40
2023-02-17T09:24:23.537Z,14.20
2023-02-17T09:26:51.507Z,14.30
2023-02-17T09:29:19.642Z,14.20
2023-02-17T09:31:47.791Z,14.30
2023-02-17T09:34:16.371Z,14.30
2023-02-17T09:36:45.797Z,14.30
2023-02-17T09:39:14.717Z,14.30
2023-02-17T09:41:47.101Z,14.30
2023-02-17T09:44:21.913Z,14.40
2023-02-17T09:47:02.201Z,14.40
2023-02-17T09:49:37.726Z,14.40
2023-02-17T09:52:13.018Z,14.40
2023-02-17T09:54:49.985Z,14.40
2023-02-17T09:57:21.003Z,14.40
2023-02-17T09:59:55.165Z,14.40
2023-02-17T10:02:28.836Z,14.40
2023-02-17T10:04:58.656Z,14.40
2023-02-17T10:07:31.443Z,14.50
2023-02-17T10:10:06.529Z,14.40
2023-02-17T10:12:39.283Z,14.50
2023-02-17T10:15:17.846Z,14.50
2023-02-17T10:17:52.929Z,14.50
2023-02-17T10:20:24.680Z,14.50
2023-02-17T10:22:56.884Z,14.60
2023-02-17T10:25:39.419Z,14.60
2023-02-17T10:28:10.786Z,14.60
2023-02-17T10:30:45.858Z,14.60
2023-02-17T10:33:18.537Z,14.60
2023-02-17T10:36:00.938Z,14.60
2023-02-17T10:38:42.161Z,14.60
2023-02-17T10:41:15.800Z,14.60
2023-02-17T10:43:47.658Z,14.50
2023-02-17T10:46:18.823Z,14.50
2023-02-17T10:48:50.891Z,14.60
2023-02-17T10:51:23.415Z,14.50
2023-02-17T10:53:57.463Z,14.50
2023-02-17T10:56:29.748Z,14.60
2023-02-17T10:59:02.851Z,14.60
2023-02-17T11:01:30.847Z,14.60
2023-02-17T11:04:06.102Z,14.60
2023-02-17T11:06:39.217Z,14.60
2023-02-17T11:09:20.012Z,14.60
2023-02-17T11:11:56.084Z,14.60
2023-02-17T11:14:28.397Z,14.60
2023-02-17T11:17:00.114Z,14.60
2023-02-17T11:19:30.928Z,14.60
2023-02-17T11:22:01.700Z,14.60
2023-02-17T11:24:33.140Z,14.60
2023-02-17T11:27:03.683Z,14.60
2023-02-17T11:29:33.119Z,14.60
2023-02-17T11:32:04.805Z,14.60
2023-02-17T11:34:34.777Z,14.60
2023-02-17T11:37:07.897Z,14.60
2023-02-17T11:39:41.762Z,14.60
2023-02-17T11:42:17.020Z,14.60
2023-02-17T11:44:44.973Z,14.60
2023-02-17T11:47:22.577Z,14.60
2023-02-17T11:50:18.601Z,14.60
2023-02-17T11:53:01.007Z,14.60
2023-02-17T11:55:42.637Z,14.60
2023-02-17T20:52:24.998Z,14.00
2023-02-17T20:54:53.038Z,14.00
2023-02-17T20:57:20.938Z,14.00
2023-02-17T20:59:49.483Z,14.00
2023-02-17T21:02:17.404Z,14.00
2023-02-17T21:04:46.759Z,14.00
2023-02-17T21:07:14.754Z,14.00
2023-02-17T21:09:43.917Z,14.00
2023-02-17T21:12:11.734Z,13.90
2023-02-17T21:14:39.891Z,13.90
2023-02-17T21:17:07.686Z,13.90
2023-02-17T21:19:35.533Z,13.90
2023-02-17T21:22:05.448Z,13.90
2023-02-17T21:24:33.404Z,13.90
2023-02-17T21:27:02.644Z,13.90
2023-02-17T21:29:30.636Z,13.90
2023-02-17T21:31:58.563Z,13.90
2023-02-17T21:34:26.457Z,13.90
2023-02-17T21:36:54.657Z,13.90
2023-02-17T21:39:22.709Z,13.80
2023-02-17T21:41:51.477Z,12.40
2023-02-17T21:44:38.495Z,14.10
2023-02-17T21:47:09.436Z,13.80
2023-02-17T21:49:37.346Z,13.80
2023-02-17T21:52:09.133Z,13.80
2023-02-17T21:54:37.195Z,13.70
2023-02-17T21:57:05.698Z,13.70
2023-02-17T21:59:34.893Z,13.70
2023-02-17T22:02:02.755Z,13.70
2023-02-17T22:04:30.604Z,13.70
2023-02-17T22:06:58.608Z,13.70
2023-02-17T22:09:26.495Z,13.70
2023-02-17T22:11:55.520Z,13.60
2023-02-17T22:14:23.381Z,13.60
2023-02-17T22:16:52.771Z,13.60
2023-02-17T22:19:22.860Z,13.60
2023-02-17T22:21:51.883Z,13.60
2023-02-17T22:24:20.712Z,13.70
2023-02-17T22:26:48.969Z,13.60
2023-02-17T22:29:16.882Z,13.60
2023-02-17T22:31:44.944Z,13.50
2023-02-17T22:34:16.399Z,13.50
2023-02-17T22:36:46.290Z,13.50
2023-02-17T22:39:14.685Z,13.50
2023-02-17T22:41:42.629Z,13.50
2023-02-17T22:44:10.455Z,13.50
2023-02-17T22:46:38.373Z,13.50
2023-02-17T22:49:09.696Z,13.50
2023-02-17T22:51:41.011Z,13.40
2023-02-17T22:54:09.752Z,13.40
2023-02-17T22:56:38.517Z,13.40
2023-02-17T22:59:06.965Z,13.40
2023-02-17T23:01:37.087Z,13.40
2023-02-17T23:04:06.937Z,13.40
2023-02-17T23:06:36.863Z,13.40
2023-02-17T23:09:10.945Z,13.40
2023-02-17T23:11:54.799Z,13.40
2023-02-17T23:14:25.534Z,13.40
2023-02-17T23:16:55.000Z,13.50
2023-02-17T23:19:24.362Z,13.40
2023-02-17T23:21:53.955Z,13.40
2023-02-17T23:24:24.618Z,13.40
2023-02-17T23:26:53.548Z,13.50
2023-02-17T23:29:21.741Z,13.50
2023-02-17T23:31:49.689Z,13.50
2023-02-17T23:34:17.753Z,13.50
2023-02-17T23:36:49.902Z,13.50
2023-02-17T23:39:18.236Z,13.50
2023-02-17T23:41:47.554Z,13.60
2023-02-17T23:44:16.622Z,13.40
2023-02-17T23:46:45.608Z,13.60
2023-02-17T23:49:15.923Z,13.60
2023-02-17T23:51:44.532Z,13.60
2023-02-17T23:54:12.520Z,13.60
2023-02-17T23:56:41.837Z,13.60
2023-02-17T23:59:11.568Z,13.60
